Impacts METAR Board
IDs:

KMLC - McAlester Rgnl, OK, US

Updated at: 2200 UTC 21 May 2022
Potential Impact None Slight Moderate High
Time 21/10Z 21/11Z 21/12Z 21/13Z 21/14Z 21/15Z 21/16Z 21/17Z 21/18Z 21/19Z 21/20Z 21/21Z 21/22Z
Temp76 75 68 64 64 64 66 65 62 61 60 59 58
Dewpt69 70 63 61 62 63 63 63 60 58 57 56 54
Altim29.76 29.78 29.81 29.86 29.87 29.89 29.91 29.94 29.96 29.98 30.01 30.02 30.03
VIS10 10 10 10 10 10 10 10 5 8 10 9 10
CIG40 24 16 6 6 4 5 5 5 5 6 8 9
CoverOVCOVCOVCOVCBKNOVCOVCOVCOVCOVCOVCOVCOVC
FltCatVFRMVFRMVFRIFRIFRLIFRIFRIFRIFRIFRIFRIFRIFR
WX-----RA-RA-RA-RA-RA-RA-RA BR-RA-RA-RA-RA
WDir2001903303602033035035034036010360350
WSpd6 4 12 8 5 4 7 10 11 13 13 12 13
WGst-- -- 18 -- -- -- -- -- 19 -- 19 20 25
R02/20
XWnd -0 -1 9 3 0 3 4 5 7 4 2 4 7
XGst -- -- 14 -- -- -- -- -- 12 -- 3 7 13
HWnd -6 -4 8 8 5 3 6 9 8 12 13 11 11
HGst -- -- 12 -- -- -- -- -- 15 -- 19 19 22
Raw hourly METARs
KMLC 210953Z AUTO 20006KT 10SM SCT028 BKN040 OVC070 24/21 A2976 RMK AO2 SLP065 T02440206
KMLC 211053Z AUTO 19004KT 10SM BKN024 OVC033 24/21 A2978 RMK AO2 LTG DSNT NE RAB26E37 SLP075 P0000 T02390211
KMLC 211153Z AUTO 33012G18KT 300V010 10SM -RA OVC016 20/17 A2981 RMK AO2 RAB21E37B53 SLP087 P0000 60000 T02000172 10272 20200 53029
KMLC 211253Z AUTO 36008KT 10SM -RA BKN006 OVC021 18/16 A2986 RMK AO2 SLP101 P0000 T01780161
KMLC 211353Z AUTO 02005KT 10SM -RA BKN006 18/17 A2987 RMK AO2 SLP107 P0000 T01780167
KMLC 211500Z AUTO 33004KT 10SM -RA OVC004 18/17 A2989 RMK AO2 P0000 T01780172
KMLC 211553Z AUTO 35007KT 10SM -RA OVC005 19/17 A2991 RMK AO2 RAE17B29 SLP119 P0000 T01890172
KMLC 211653Z AUTO 35010KT 10SM -RA OVC005 18/17 A2994 RMK AO2 LTG DSNT SE RAE23B40 SLP129 P0000 T01830172
KMLC 211753Z AUTO 34011G19KT 5SM -RA BR OVC005 17/16 A2996 RMK AO2 SLP138 P0001 60001 T01670156 10200 20167 53024
KMLC 211853Z AUTO 36013KT 8SM -RA OVC005 16/14 A2998 RMK AO2 SLP144 P0000 T01610144
KMLC 211953Z AUTO 01013G19KT 10SM -RA OVC006 16/14 A3001 RMK AO2 SLP154 P0000 T01560139
KMLC 212053Z AUTO 36012G20KT 9SM -RA OVC008 15/13 A3002 RMK AO2 SLP158 P0000 60000 T01500133 51018
KMLC 212153Z AUTO 35013G25KT 10SM -RA OVC009 14/12 A3003 RMK AO2 CIG 007V011 SLP163 P0000 T01440122



Page loaded:  22:52 UTC  |   03:52 PM Pacific  |   04:52 PM Mountain  |   05:52 PM Central  |   06:52 PM Eastern

 

ADVISORIES

FORECASTS

FORECASTS

OBSERVATIONS

USER TOOLS

ABOUT US